Time;durP1;ratioP1;P1;durP2;ratioP2;P2;SDS_P1;SDS_P2;PMS_P1;PMS_P2;Temp;Humidity;BMP_temperature;BMP_pressure;BME280_temperature;BME280_humidity;BME280_pressure;Samples;Min_cycle;Max_cycle;Signal;HPM_P1;HPM_P2
2022/08/26 00:01:30;;;;;;;12.65;5.90;;;;;;;22.47;76.59;100827.94;5112316;28;20169;-65
2022/08/26 00:03:58;;;;;;;11.10;5.93;;;;;;;22.44;77.69;100829.09;5112061;28;20055;-65
2022/08/26 00:06:25;;;;;;;15.52;6.97;;;;;;;22.40;77.89;100827.72;5114212;28;20053;-64
2022/08/26 00:08:52;;;;;;;18.98;6.72;;;;;;;22.37;77.78;100827.22;5114977;28;20412;-62
2022/08/26 00:11:20;;;;;;;18.60;7.38;;;;;;;22.33;78.63;100824.00;5117049;28;20087;-63
2022/08/26 00:13:54;;;;;;;13.38;6.78;;;;;;;22.32;78.02;100818.81;5111107;28;20527;-62
2022/08/26 00:16:27;;;;;;;10.65;6.97;;;;;;;22.32;77.89;100818.81;5114032;28;20044;-62
2022/08/26 00:18:54;;;;;;;15.15;6.75;;;;;;;22.32;78.60;100824.19;5094688;28;20552;-62
2022/08/26 00:21:21;;;;;;;13.35;6.55;;;;;;;22.29;78.25;100811.94;5117162;28;20142;-62
2022/08/26 00:23:49;;;;;;;13.98;7.97;;;;;;;22.28;77.87;100815.63;5113272;28;20420;-68
2022/08/26 00:26:16;;;;;;;11.55;6.40;;;;;;;22.24;78.60;100814.25;5114046;28;20046;-67
2022/08/26 00:28:43;;;;;;;10.13;6.32;;;;;;;22.23;78.14;100815.25;5117371;28;20044;-62
2022/08/26 00:31:11;;;;;;;16.77;6.97;;;;;;;22.21;77.78;100811.91;5111658;27;20535;-65
2022/08/26 00:33:39;;;;;;;13.13;6.32;;;;;;;22.21;77.74;100810.06;5111905;28;20061;-65
2022/08/26 00:36:06;;;;;;;17.23;6.65;;;;;;;22.20;78.03;100810.25;5112653;28;20103;-62
2022/08/26 00:38:35;;;;;;;15.85;6.80;;;;;;;22.16;78.77;100814.25;5098260;28;20059;-63
2022/08/26 00:41:04;;;;;;;15.60;6.68;;;;;;;22.15;78.11;100807.19;5100884;28;20046;-61
2022/08/26 00:43:33;;;;;;;16.27;7.38;;;;;;;22.15;78.79;100813.38;5098635;28;20044;-63
2022/08/26 00:46:23;;;;;;;17.45;7.28;;;;;;;22.10;80.49;100809.47;5097751;28;20050;-67
2022/08/26 00:48:53;;;;;;;18.92;7.88;;;;;;;22.02;81.17;100804.94;5081213;28;20042;-64
2022/08/26 00:51:22;;;;;;;13.65;7.20;;;;;;;22.03;80.79;100797.72;5098803;28;20052;-64
2022/08/26 00:53:57;;;;;;;15.02;6.22;;;;;;;22.04;80.71;100804.75;5099913;28;20532;-62
2022/08/26 00:56:29;;;;;;;16.58;6.75;;;;;;;22.04;79.96;100802.91;5102029;28;20078;-62
2022/08/26 00:59:01;;;;;;;9.52;5.65;;;;;;;22.03;80.00;100806.59;5079185;28;20088;-61
2022/08/26 01:01:30;;;;;;;16.67;6.93;;;;;;;22.00;79.88;100799.72;5099553;28;20142;-63
2022/08/26 01:03:59;;;;;;;16.63;7.15;;;;;;;21.98;81.18;100803.56;5098458;28;20066;-63
2022/08/26 01:06:27;;;;;;;17.23;6.95;;;;;;;21.93;81.07;100798.69;5094162;28;20090;-65
2022/08/26 01:08:55;;;;;;;13.65;7.00;;;;;;;21.92;80.94;100798.81;5101710;28;20420;-64
2022/08/26 01:11:23;;;;;;;15.73;7.10;;;;;;;21.94;81.28;100804.88;5100721;27;20043;-62
2022/08/26 01:13:53;;;;;;;17.15;7.50;;;;;;;21.91;81.69;100800.66;5083990;28;20062;-63
2022/08/26 01:16:23;;;;;;;15.55;7.07;;;;;;;21.89;82.03;100800.00;5101407;28;20044;-62
2022/08/26 01:18:54;;;;;;;16.80;7.03;;;;;;;21.87;83.46;100803.84;5098055;28;20079;-62
2022/08/26 01:21:27;;;;;;;20.75;7.88;;;;;;;21.84;83.70;100799.66;5080356;28;20062;-64
2022/08/26 01:23:56;;;;;;;15.07;6.55;;;;;;;21.84;82.80;100806.81;5100588;28;20071;-62
2022/08/26 01:26:33;;;;;;;15.07;6.70;;;;;;;21.86;82.11;100799.47;5082869;28;20124;-63
2022/08/26 01:29:02;;;;;;;17.42;6.63;;;;;;;21.87;82.25;100795.78;5083255;28;20464;-62
2022/08/26 01:31:36;;;;;;;15.18;6.43;;;;;;;21.88;82.00;100800.16;5081988;28;20716;-62
2022/08/26 01:34:14;;;;;;;16.93;8.20;;;;;;;21.87;81.78;100791.25;5083467;28;20044;-60
2022/08/26 01:36:42;;;;;;;13.48;7.22;;;;;;;21.87;81.80;100795.78;5080968;28;20058;-65
2022/08/26 01:39:12;;;;;;;13.45;6.60;;;;;;;21.85;81.97;100792.44;5076612;28;20385;-63
2022/08/26 01:41:40;;;;;;;13.43;5.93;;;;;;;21.87;80.75;100793.09;5099594;28;20413;-65
2022/08/26 01:44:17;;;;;;;14.70;7.10;;;;;;;21.88;80.78;100787.56;5100351;28;20070;-66
2022/08/26 01:46:46;;;;;;;17.03;7.77;;;;;;;21.86;80.99;100794.13;5095271;28;20433;-63
2022/08/26 01:49:14;;;;;;;13.23;6.65;;;;;;;21.83;81.96;100789.06;5081414;28;20058;-62
2022/08/26 01:51:43;;;;;;;14.63;6.70;;;;;;;21.81;81.59;100788.41;5099960;28;20053;-64
2022/08/26 01:54:11;;;;;;;14.70;7.57;;;;;;;21.77;82.36;100776.31;5097515;28;20052;-64
2022/08/26 01:56:40;;;;;;;14.43;6.72;;;;;;;21.72;82.32;100780.31;5095262;28;20306;-63
2022/08/26 01:59:10;;;;;;;17.23;7.80;;;;;;;21.72;82.74;100782.16;5096865;28;20039;-64
2022/08/26 02:01:38;;;;;;;13.60;7.30;;;;;;;21.68;83.03;100778.94;5083307;28;20062;-63
2022/08/26 02:04:11;;;;;;;17.05;8.52;;;;;;;21.67;82.62;100782.63;5102261;28;20055;-63
2022/08/26 02:06:38;;;;;;;21.77;7.47;;;;;;;21.66;82.64;100778.28;5093572;28;20048;-64
2022/08/26 02:09:06;;;;;;;21.38;8.27;;;;;;;21.65;83.43;100783.78;5095427;28;22387;-64
2022/08/26 02:11:33;;;;;;;14.85;7.45;;;;;;;21.61;83.18;100777.03;5099484;28;20056;-65
2022/08/26 02:14:09;;;;;;;14.60;7.28;;;;;;;21.59;82.80;100776.38;5097464;28;20047;-62
2022/08/26 02:16:40;;;;;;;17.25;7.15;;;;;;;21.59;82.37;100779.91;5100910;28;20047;-63
2022/08/26 02:19:15;;;;;;;14.98;6.75;;;;;;;21.62;81.97;100778.75;5078133;28;20058;-64
2022/08/26 02:21:44;;;;;;;16.40;8.18;;;;;;;21.61;82.21;100780.56;5101570;28;20044;-64
2022/08/26 02:24:20;;;;;;;19.65;7.38;;;;;;;21.60;82.55;100770.84;5082301;28;20056;-64
2022/08/26 02:26:48;;;;;;;17.73;6.30;;;;;;;21.59;81.72;100769.19;5076579;28;20043;-67
2022/08/26 02:29:25;;;;;;;13.20;7.03;;;;;;;21.60;82.10;100778.88;5080671;28;20047;-65
2022/08/26 02:31:56;;;;;;;22.05;7.07;;;;;;;21.59;82.07;100773.69;5100444;28;20155;-65
2022/08/26 02:34:31;;;;;;;19.20;7.90;;;;;;;21.59;82.80;100774.53;5098790;28;20556;-64
2022/08/26 02:36:59;;;;;;;;;;;;;;;21.56;82.65;100774.00;5098002;28;20088;-63
2022/08/26 02:39:28;;;;;;;18.38;8.00;;;;;;;21.52;82.90;100768.13;5098759;28;19938;-63
2022/08/26 02:41:56;;;;;;;12.82;6.85;;;;;;;21.47;83.56;100768.59;5100075;28;20051;-62
2022/08/26 02:44:24;;;;;;;16.20;8.00;;;;;;;21.45;83.67;100772.44;5099951;28;20142;-62
2022/08/26 02:46:53;;;;;;;10.55;7.03;;;;;;;21.43;84.05;100771.75;5097491;28;20044;-65
2022/08/26 02:49:22;;;;;;;14.88;7.82;;;;;;;21.39;84.59;100768.56;5097763;28;20515;-63
2022/08/26 02:51:50;;;;;;;17.45;7.85;;;;;;;21.39;83.76;100762.34;5102422;28;20063;-64
2022/08/26 02:54:20;;;;;;;16.70;7.90;;;;;;;21.38;84.11;100763.34;5096775;28;20059;-62
2022/08/26 02:56:47;;;;;;;17.35;7.50;;;;;;;21.36;84.64;100762.66;5097679;28;20048;-62
2022/08/26 02:59:15;;;;;;;15.10;7.50;;;;;;;21.35;83.96;100761.84;5097307;28;20889;-63
2022/08/26 03:01:43;;;;;;;20.27;9.05;;;;;;;21.37;84.39;100762.50;5098495;28;20061;-63
2022/08/26 03:04:11;;;;;;;17.98;7.88;;;;;;;21.37;84.32;100759.81;5098603;28;20074;-63
2022/08/26 03:06:40;;;;;;;13.55;7.57;;;;;;;21.37;84.29;100756.31;5100734;28;20036;-62
2022/08/26 03:09:07;;;;;;;18.13;7.28;;;;;;;21.39;84.71;100756.97;5094986;28;20060;-62
2022/08/26 03:11:35;;;;;;;19.13;7.97;;;;;;;21.39;84.09;100754.31;5098172;27;20047;-62
2022/08/26 03:14:03;;;;;;;13.60;7.05;;;;;;;21.39;83.86;100755.16;5099993;28;20187;-62
2022/08/26 03:16:35;;;;;;;20.25;7.72;;;;;;;21.42;83.61;100749.47;5094583;28;20071;-67
2022/08/26 03:19:04;;;;;;;15.27;7.28;;;;;;;21.43;83.88;100750.31;5075183;28;20047;-63
2022/08/26 03:21:32;;;;;;;22.10;9.48;;;;;;;21.43;84.27;100747.63;5099120;28;20083;-62
2022/08/26 03:23:59;;;;;;;19.35;8.43;;;;;;;21.40;85.28;100745.28;5074352;28;20051;-62
2022/08/26 03:26:27;;;;;;;16.25;8.93;;;;;;;21.39;85.00;100748.94;5096178;28;20432;-63
2022/08/26 03:31:42;;;;;;;12.40;6.93;;;;;;;21.41;84.31;100745.13;5094892;28;20214;-63
2022/08/26 03:34:13;;;;;;;16.58;7.18;;;;;;;21.43;83.91;100751.19;5095624;28;20055;-65
2022/08/26 03:36:40;;;;;;;20.98;8.13;;;;;;;21.47;83.08;100749.00;5100780;28;20048;-67
2022/08/26 03:39:09;;;;;;;17.15;8.15;;;;;;;21.47;83.29;100749.00;5094938;28;20047;-67
2022/08/26 03:41:36;;;;;;;22.73;8.60;;;;;;;21.46;84.30;100741.97;5095435;28;20096;-66
2022/08/26 03:44:05;;;;;;;16.25;7.82;;;;;;;21.44;84.03;100741.31;5072853;28;20053;-63
2022/08/26 03:46:32;;;;;;;18.10;8.02;;;;;;;21.43;84.27;100744.97;5096631;28;20059;-64
2022/08/26 03:49:00;;;;;;;22.52;10.18;;;;;;;21.43;84.17;100743.16;5095512;28;20047;-64
2022/08/26 03:51:28;;;;;;;19.60;8.00;;;;;;;21.42;84.66;100738.75;5098205;28;20046;-62
2022/08/26 03:53:59;;;;;;;20.63;8.80;;;;;;;21.40;84.33;100737.25;5096252;28;20067;-61
2022/08/26 03:56:26;;;;;;;18.25;9.00;;;;;;;21.39;84.46;100731.06;5095860;28;20093;-67
2022/08/26 03:58:53;;;;;;;18.55;7.97;;;;;;;21.37;85.31;100733.03;5095534;28;20457;-68
2022/08/26 04:01:21;;;;;;;16.25;8.52;;;;;;;21.37;84.61;100727.69;5094824;28;20067;-64
2022/08/26 04:03:58;;;;;;;25.38;9.45;;;;;;;21.37;85.14;100729.53;5094427;28;20493;-61
2022/08/26 04:06:44;;;;;;;26.15;9.63;;;;;;;21.36;85.51;100730.53;5094406;28;20146;-64
2022/08/26 04:09:17;;;;;;;16.88;8.15;;;;;;;21.36;85.40;100726.00;5093173;28;20079;-65
2022/08/26 04:11:45;;;;;;;18.40;8.68;;;;;;;21.37;85.83;100730.38;5094039;28;20056;-65
2022/08/26 04:14:19;;;;;;;24.48;8.98;;;;;;;21.36;85.12;100734.06;5096094;28;20063;-66
2022/08/26 04:16:47;;;;;;;15.90;7.80;;;;;;;21.37;84.86;100730.38;5097939;28;21268;-65
2022/08/26 04:19:14;;;;;;;15.77;7.15;;;;;;;21.39;84.18;100732.88;5096647;28;20066;-62
2022/08/26 04:21:43;;;;;;;22.70;7.95;;;;;;;21.40;84.60;100730.06;5096926;28;20462;-62
2022/08/26 04:24:14;;;;;;;24.55;8.38;;;;;;;21.39;85.45;100731.06;5092092;28;20137;-64
2022/08/26 04:26:42;;;;;;;16.95;7.40;;;;;;;21.40;84.84;100730.06;5095037;28;20044;-63
2022/08/26 04:29:13;;;;;;;17.45;7.85;;;;;;;21.40;84.76;100730.06;5093594;28;20058;-64
2022/08/26 04:31:40;;;;;;;23.73;9.43;;;;;;;21.37;85.24;100738.41;5093552;27;20071;-60
2022/08/26 04:34:08;;;;;;;17.23;8.07;;;;;;;21.37;85.08;100730.38;5095424;28;20059;-63
2022/08/26 04:36:37;;;;;;;16.63;8.23;;;;;;;21.41;84.14;100728.22;5098478;28;20063;-62
2022/08/26 04:39:04;;;;;;;23.45;9.18;;;;;;;21.43;85.32;100726.22;5094053;28;20146;-61
2022/08/26 04:41:32;;;;;;;17.33;9.73;;;;;;;21.44;85.08;100725.25;5097154;28;20052;-62
2022/08/26 04:44:01;;;;;;;14.70;8.02;;;;;;;21.42;84.97;100722.69;5093468;28;20054;-62
2022/08/26 04:46:28;;;;;;;21.20;10.30;;;;;;;21.44;85.02;100726.06;5096590;27;20074;-64
2022/08/26 04:48:56;;;;;;;15.35;8.30;;;;;;;21.46;84.96;100725.91;5094251;28;20903;-63
2022/08/26 04:51:26;;;;;;;16.30;7.90;;;;;;;21.48;85.12;100716.72;5095366;28;20064;-64
2022/08/26 04:53:55;;;;;;;20.48;9.40;;;;;;;21.49;85.24;100725.59;5093715;27;20154;-62
2022/08/26 04:56:28;;;;;;;17.30;7.68;;;;;;;21.48;85.35;100715.88;5095652;27;20049;-60
2022/08/26 04:58:55;;;;;;;15.45;7.30;;;;;;;21.49;85.18;100721.06;5097532;28;20044;-62
2022/08/26 05:01:23;;;;;;;20.17;9.25;;;;;;;21.53;84.95;100723.44;5094403;27;20162;-64
2022/08/26 05:03:50;;;;;;;20.60;9.57;;;;;;;21.53;86.05;100720.75;5093260;28;20040;-65
2022/08/26 05:06:18;;;;;;;25.13;9.07;;;;;;;21.53;87.15;100729.63;5094489;27;20420;-66
2022/08/26 05:08:46;;;;;;;18.42;8.18;;;;;;;21.54;87.15;100730.47;5081955;28;20044;-66
2022/08/26 05:11:14;;;;;;;12.57;9.02;;;;;;;21.56;86.17;100733.81;5096322;27;20145;-66
2022/08/26 05:13:41;;;;;;;27.55;9.30;;;;;;;21.58;86.42;100732.69;5097006;28;20059;-62
2022/08/26 05:16:10;;;;;;;18.65;9.02;;;;;;;21.59;87.09;100734.34;5094438;28;20365;-63
2022/08/26 05:18:39;;;;;;;15.20;7.63;;;;;;;21.62;86.96;100736.72;5091111;27;20093;-64
2022/08/26 05:21:06;;;;;;;16.85;8.10;;;;;;;21.65;86.18;100736.38;5091819;28;20417;-62
2022/08/26 05:23:34;;;;;;;22.20;8.63;;;;;;;21.69;86.22;100744.94;5096537;28;20060;-64
2022/08/26 05:26:06;;;;;;;16.38;7.55;;;;;;;21.70;86.04;100742.13;5094797;27;20058;-62
2022/08/26 05:28:34;;;;;;;24.63;9.25;;;;;;;21.73;86.65;100746.31;5073203;28;20060;-64
2022/08/26 05:31:14;;;;;;;18.67;9.65;;;;;;;21.77;87.31;100746.84;5097625;28;20337;-64
2022/08/26 05:33:44;;;;;;;19.67;9.07;;;;;;;21.81;86.96;100754.41;5095851;28;20047;-63
2022/08/26 05:36:14;;;;;;;21.88;9.93;;;;;;;21.86;87.00;100749.38;5094034;28;20097;-64
2022/08/26 05:38:42;;;;;;;15.02;8.15;;;;;;;21.90;87.11;100756.13;5094949;28;22007;-62
2022/08/26 05:41:27;;;;;;;15.82;8.15;;;;;;;21.97;86.69;100750.94;5095101;28;20056;-63
2022/08/26 05:44:04;;;;;;;35.78;12.00;;;;;;;22.04;85.97;100740.41;5094316;28;20398;-63
2022/08/26 05:46:33;;;;;;;24.60;9.02;;;;;;;22.08;86.84;100747.97;5096279;28;20433;-63
2022/08/26 05:49:01;;;;;;;22.95;8.77;;;;;;;22.13;86.10;100744.84;5092431;28;20048;-60
2022/08/26 05:51:29;;;;;;;16.70;8.50;;;;;;;22.16;86.37;100741.84;5070949;28;20509;-62
2022/08/26 05:53:57;;;;;;;22.30;9.32;;;;;;;22.17;86.46;100749.72;5074653;28;20052;-61
2022/08/26 05:56:26;;;;;;;19.05;8.15;;;;;;;22.18;86.49;100753.22;5092728;27;20085;-66
2022/08/26 05:58:55;;;;;;;15.05;7.20;;;;;;;22.21;85.97;100752.91;5091770;28;20054;-65
2022/08/26 06:01:25;;;;;;;17.27;8.38;;;;;;;22.24;85.73;100752.56;5092384;27;20619;-61
2022/08/26 06:03:56;;;;;;;26.98;10.00;;;;;;;22.26;85.55;100750.59;5093990;28;20766;-64
2022/08/26 06:06:31;;;;;;;18.00;7.85;;;;;;;22.32;85.41;100754.44;5091094;28;20113;-66
2022/08/26 06:09:00;;;;;;;23.13;9.60;;;;;;;22.34;85.10;100747.09;5088262;28;20052;-65
2022/08/26 06:11:30;;;;;;;19.85;8.10;;;;;;;22.36;85.99;100742.38;5088473;27;20058;-64
2022/08/26 06:14:01;;;;;;;18.55;8.57;;;;;;;22.39;85.19;100747.44;5090570;27;20051;-64
2022/08/26 06:16:33;;;;;;;18.55;8.85;;;;;;;22.43;84.81;100741.56;5089684;28;20039;-65
2022/08/26 06:19:02;;;;;;;13.57;7.13;;;;;;;22.47;84.72;100745.63;5092436;28;20822;-62
2022/08/26 06:21:38;;;;;;;17.67;8.73;;;;;;;22.51;84.43;100743.41;5093030;27;20059;-63
2022/08/26 06:26:59;;;;;;;14.38;7.18;;;;;;;22.58;84.75;100744.44;5080269;27;20216;-66
2022/08/26 06:29:29;;;;;;;26.70;8.95;;;;;;;22.62;84.32;100740.44;5087092;28;20047;-65
2022/08/26 06:31:56;;;;;;;19.38;7.35;;;;;;;22.68;83.80;100742.44;5076093;28;20196;-64
2022/08/26 06:34:27;;;;;;;18.80;9.02;;;;;;;22.71;83.67;100743.97;5094611;28;20420;-62
2022/08/26 06:36:58;;;;;;;12.15;7.55;;;;;;;22.77;83.91;100745.97;5093882;28;20150;-63
2022/08/26 06:39:27;;;;;;;15.50;8.32;;;;;;;22.81;83.39;100738.44;5094443;28;20123;-62
2022/08/26 06:41:58;;;;;;;14.32;7.88;;;;;;;22.86;83.24;100738.75;5091742;27;20052;-64
2022/08/26 06:44:26;;;;;;;23.30;8.77;;;;;;;22.90;82.88;100742.81;5094742;28;20558;-65
2022/08/26 06:46:54;;;;;;;16.90;7.55;;;;;;;22.96;82.61;100739.47;5094281;28;20039;-63
2022/08/26 06:49:21;;;;;;;14.40;7.20;;;;;;;23.00;82.41;100744.31;5093085;28;20055;-63
2022/08/26 06:51:56;;;;;;;12.63;7.00;;;;;;;23.07;82.40;100747.19;5093342;28;20059;-61
2022/08/26 06:54:25;;;;;;;17.25;7.18;;;;;;;23.13;82.27;100745.66;5093500;28;20127;-62
2022/08/26 06:56:52;;;;;;;12.23;6.65;;;;;;;23.18;82.05;100746.84;5097086;28;20047;-62
2022/08/26 06:59:20;;;;;;;15.65;7.95;;;;;;;23.24;82.33;100750.72;5094331;28;20418;-61
2022/08/26 07:01:47;;;;;;;11.50;6.53;;;;;;;23.28;82.08;100740.44;5093195;28;20044;-62
2022/08/26 07:04:16;;;;;;;12.23;6.75;;;;;;;23.33;81.92;100744.31;5095038;28;20051;-62
2022/08/26 07:06:49;;;;;;;15.00;7.53;;;;;;;23.39;81.95;100742.78;5094534;28;20108;-62
2022/08/26 07:09:23;;;;;;;23.02;8.82;;;;;;;23.43;83.16;100734.22;5094141;28;20461;-62
2022/08/26 07:11:51;;;;;;;12.32;6.82;;;;;;;23.46;83.06;100736.56;5096180;28;20605;-62
2022/08/26 07:14:19;;;;;;;24.63;8.30;;;;;;;23.53;83.33;100733.19;5095520;28;20047;-62
2022/08/26 07:16:48;;;;;;;16.70;7.45;;;;;;;23.57;83.20;100735.34;5095474;28;20056;-62
2022/08/26 07:19:20;;;;;;;17.67;8.02;;;;;;;23.61;83.15;100728.63;5093375;28;20059;-62
2022/08/26 07:22:02;;;;;;;20.35;8.82;;;;;;;23.66;82.71;100726.28;5095617;28;20051;-62
2022/08/26 07:24:35;;;;;;;19.10;8.98;;;;;;;23.73;82.64;100723.72;5093703;28;20476;-60
2022/08/26 07:27:05;;;;;;;21.65;9.05;;;;;;;23.75;84.14;100724.41;5094885;28;20215;-62
2022/08/26 07:29:35;;;;;;;15.98;7.30;;;;;;;23.82;83.96;100724.53;5090667;28;20130;-62
2022/08/26 07:32:03;;;;;;;18.10;8.15;;;;;;;23.89;83.45;100722.84;5094614;28;20505;-62
2022/08/26 07:34:31;;;;;;;17.42;7.78;;;;;;;23.94;82.91;100720.47;5095441;28;20063;-62
2022/08/26 07:37:00;;;;;;;20.75;7.75;;;;;;;23.99;82.69;100718.09;5094388;28;20044;-62
2022/08/26 07:39:28;;;;;;;15.35;7.03;;;;;;;24.05;82.60;100714.72;5092927;28;20047;-62
2022/08/26 07:42:00;;;;;;;14.70;7.00;;;;;;;24.10;82.41;100711.50;5095160;28;20790;-62
2022/08/26 07:44:29;;;;;;;15.13;6.97;;;;;;;24.16;81.77;100716.16;5094665;28;20047;-62
2022/08/26 07:46:58;;;;;;;22.73;8.63;;;;;;;24.22;82.67;100720.81;5095082;28;20146;-62
2022/08/26 07:49:25;;;;;;;17.63;7.53;;;;;;;24.26;82.61;100717.59;5097285;27;20766;-62
2022/08/26 07:51:54;;;;;;;15.38;6.78;;;;;;;24.34;81.96;100721.25;5099096;28;20063;-62
2022/08/26 07:54:22;;;;;;;13.52;6.70;;;;;;;24.39;81.61;100714.34;5098371;28;20044;-62
2022/08/26 07:56:53;;;;;;;21.80;8.02;;;;;;;24.47;81.64;100716.16;5097794;28;20730;-62
2022/08/26 07:59:22;;;;;;;12.60;6.65;;;;;;;24.52;81.44;100713.78;5102844;28;20134;-62
2022/08/26 08:01:49;;;;;;;12.90;7.10;;;;;;;24.60;81.55;100721.78;5099443;28;20067;-62
2022/08/26 08:04:18;;;;;;;22.45;8.32;;;;;;;24.66;81.34;100721.06;5102435;28;20059;-62
2022/08/26 08:06:52;;;;;;;15.73;7.25;;;;;;;24.73;81.19;100715.81;5099813;27;20051;-61
2022/08/26 08:09:20;;;;;;;20.10;7.32;;;;;;;24.78;81.05;100712.59;5099017;28;20055;-62
2022/08/26 08:11:48;;;;;;;13.90;6.93;;;;;;;24.83;80.36;100712.88;5098105;28;20768;-62
2022/08/26 08:14:18;;;;;;;20.27;8.88;;;;;;;24.87;80.61;100708.81;5099713;28;20063;-62
2022/08/26 08:16:49;;;;;;;16.48;7.03;;;;;;;24.93;81.33;100711.59;5096921;28;20138;-62
2022/08/26 08:19:21;;;;;;;12.82;6.43;;;;;;;24.99;80.79;100712.72;5099336;28;20052;-61
2022/08/26 08:21:49;;;;;;;8.73;6.03;;;;;;;25.05;80.20;100709.31;5098279;28;20169;-62
2022/08/26 08:24:17;;;;;;;21.83;7.40;;;;;;;25.09;80.01;100709.81;5097242;28;20051;-62
2022/08/26 08:26:44;;;;;;;18.35;7.07;;;;;;;25.12;79.58;100709.44;5098261;28;20052;-62
2022/08/26 08:29:12;;;;;;;13.65;6.22;;;;;;;25.17;79.99;100707.03;5099344;28;20055;-63
2022/08/26 08:31:40;;;;;;;17.80;6.00;;;;;;;25.23;79.62;100704.44;5076269;28;21938;-60
2022/08/26 08:34:27;;;;;;;17.55;6.78;;;;;;;25.30;79.64;100706.38;5093375;28;20142;-61
2022/08/26 08:36:56;;;;;;;20.98;7.43;;;;;;;25.35;79.23;100703.97;5094487;28;20063;-62
2022/08/26 08:39:23;;;;;;;14.73;6.72;;;;;;;25.39;79.27;100698.03;5095127;28;20532;-62
2022/08/26 08:42:14;;;;;;;14.50;5.30;;;;;;;25.42;79.19;100697.66;5093708;27;21851;-62
2022/08/26 08:44:44;;;;;;;13.35;5.22;;;;;;;25.47;78.76;100691.72;5099258;28;20048;-62
2022/08/26 08:47:35;;;;;;;17.65;6.40;;;;;;;25.55;78.82;100691.63;5096288;28;20055;-62
2022/08/26 08:50:09;;;;;;;15.82;6.38;;;;;;;25.59;78.52;100690.22;5097803;28;20067;-62
2022/08/26 08:52:40;;;;;;;15.00;5.80;;;;;;;25.63;78.02;100691.53;5082032;28;20508;-62
2022/08/26 08:55:09;;;;;;;19.75;7.10;;;;;;;25.69;77.99;100682.69;5096509;28;20536;-62
2022/08/26 08:57:50;;;;;;;18.95;7.78;;;;;;;25.74;78.27;100685.66;5096927;28;20057;-62
2022/08/26 09:00:22;;;;;;;18.42;6.53;;;;;;;25.79;78.00;100685.13;5096401;28;20051;-61
2022/08/26 09:03:10;;;;;;;15.90;6.18;;;;;;;25.84;77.69;100677.28;5096550;28;20170;-62
2022/08/26 09:05:42;;;;;;;23.00;7.18;;;;;;;25.90;77.27;100673.88;5079605;28;20059;-62
2022/08/26 09:08:17;;;;;;;12.55;5.47;;;;;;;25.94;77.00;100680.56;5080725;28;20059;-62
2022/08/26 09:10:47;;;;;;;20.88;6.45;;;;;;;25.98;76.78;100672.91;5096930;28;20040;-61
2022/08/26 09:13:16;;;;;;;26.55;7.45;;;;;;;26.04;76.65;100671.31;5080981;28;20463;-60
2022/08/26 09:16:06;;;;;;;10.50;5.40;;;;;;;26.10;76.27;100671.38;5097626;28;20158;-61
2022/08/26 09:18:33;;;;;;;20.23;6.88;;;;;;;26.18;75.88;100667.75;5079893;28;20052;-61
2022/08/26 09:21:06;;;;;;;20.75;6.57;;;;;;;26.25;74.88;100671.31;5097249;28;20571;-61
2022/08/26 09:23:36;;;;;;;17.35;5.97;;;;;;;26.34;74.68;100675.56;5098233;28;20059;-64
2022/08/26 09:26:20;;;;;;;21.48;6.40;;;;;;;26.44;73.82;100673.44;5097779;28;20040;-62
2022/08/26 09:28:57;;;;;;;20.90;5.97;;;;;;;26.53;73.37;100676.03;5096527;28;20047;-63
2022/08/26 09:31:31;;;;;;;17.65;5.80;;;;;;;26.60;73.05;100672.34;5097465;28;20044;-62
2022/08/26 09:34:18;;;;;;;18.80;6.78;;;;;;;26.66;71.91;100674.28;5098311;28;20060;-62
2022/08/26 09:36:50;;;;;;;21.33;7.13;;;;;;;26.71;71.76;100673.69;5096476;28;20079;-62
2022/08/26 09:39:22;;;;;;;21.08;6.60;;;;;;;26.74;71.01;100671.41;5097709;28;20044;-62
2022/08/26 09:42:03;;;;;;;16.33;5.57;;;;;;;26.76;70.96;100669.38;5095812;28;20055;-62
2022/08/26 09:44:31;;;;;;;28.80;7.13;;;;;;;26.83;70.94;100672.09;5096526;28;20059;-62
2022/08/26 09:47:06;;;;;;;28.98;6.90;;;;;;;26.85;70.04;100666.53;5095825;28;20166;-62
2022/08/26 09:49:38;;;;;;;20.58;6.18;;;;;;;26.88;70.05;100658.84;5078423;28;20056;-62
2022/08/26 09:52:06;;;;;;;26.57;6.97;;;;;;;26.95;69.71;100658.91;5096990;28;20051;-62
2022/08/26 09:54:35;;;;;;;18.63;6.15;;;;;;;27.01;69.43;100652.72;5098041;28;20476;-63
2022/08/26 09:57:29;;;;;;;18.73;6.72;;;;;;;27.12;68.79;100646.81;5082746;28;20067;-62
2022/08/26 09:59:59;;;;;;;24.17;6.25;;;;;;;27.21;68.79;100642.91;5096074;28;20409;-61
2022/08/26 10:02:32;;;;;;;22.55;6.03;;;;;;;27.32;68.05;100635.28;5096897;28;20067;-62
2022/08/26 10:05:02;;;;;;;24.00;5.75;;;;;;;27.35;66.78;100630.31;5099038;28;20059;-62
2022/08/26 10:07:35;;;;;;;19.52;6.72;;;;;;;27.38;67.17;100629.91;5095908;28;20084;-63
2022/08/26 10:10:08;;;;;;;18.35;6.40;;;;;;;27.37;66.63;100624.69;5090811;28;20059;-63
2022/08/26 10:12:44;;;;;;;25.00;8.95;;;;;;;27.30;66.28;100616.56;5078604;28;20057;-63
2022/08/26 10:15:13;;;;;;;17.98;7.18;;;;;;;27.33;66.93;100612.59;5097281;28;20627;-61
2022/08/26 10:18:04;;;;;;;23.52;7.32;;;;;;;27.48;66.68;100597.09;5078843;28;20054;-61
2022/08/26 10:20:35;;;;;;;20.80;7.20;;;;;;;27.56;65.76;100596.94;5082180;28;20134;-61
2022/08/26 10:23:16;;;;;;;29.85;6.88;;;;;;;27.57;65.55;100584.22;5102545;28;21848;-60
2022/08/26 10:26:01;;;;;;;24.23;7.57;;;;;;;27.60;65.86;100592.75;5095784;28;20039;-61
2022/08/26 10:28:39;;;;;;;17.23;6.43;;;;;;;27.69;65.06;100588.00;5077949;28;20595;-62
2022/08/26 10:31:12;;;;;;;26.65;7.07;;;;;;;27.74;64.88;100582.88;5077139;28;20075;-62
2022/08/26 10:33:41;;;;;;;24.48;7.45;;;;;;;27.78;64.51;100578.69;5096081;28;20056;-60
2022/08/26 10:39:30;;;;;;;21.85;6.72;;;;;;;27.99;63.84;100559.59;5091510;28;20048;-62
2022/08/26 10:42:06;;;;;;;27.63;7.50;;;;;;;28.09;63.79;100570.00;5085850;28;20055;-60
2022/08/26 10:44:37;;;;;;;26.10;7.35;;;;;;;28.26;62.68;100559.63;5079601;28;20070;-61
2022/08/26 10:47:56;;;;;;;20.23;7.00;;;;;;;28.31;62.13;100559.00;5089766;27;20077;-62
2022/08/26 10:50:31;;;;;;;35.53;9.52;;;;;;;28.31;62.12;100549.00;5037447;28;20051;-61
2022/08/26 10:53:33;;;;;;;20.33;5.97;;;;;;;28.33;61.86;100552.34;5089495;28;20055;-61
2022/08/26 10:56:10;;;;;;;23.85;6.85;;;;;;;28.30;61.53;100541.94;5092002;28;20062;-62
2022/08/26 10:58:48;;;;;;;15.73;6.38;;;;;;;28.30;62.02;100539.22;5076581;28;20056;-60
2022/08/26 11:01:44;;;;;;;26.05;8.18;;;;;;;28.38;61.62;100541.75;5093477;28;20050;-60
2022/08/26 11:04:22;;;;;;;25.10;7.65;;;;;;;28.50;62.18;100525.69;5092680;28;20163;-62
2022/08/26 11:07:31;;;;;;;23.95;7.28;;;;;;;28.54;61.07;100510.69;5094561;28;20040;-62
2022/08/26 11:10:05;;;;;;;25.27;8.13;;;;;;;28.42;60.57;100515.94;5097197;28;20138;-62
2022/08/26 11:12:35;;;;;;;22.17;6.50;;;;;;;28.39;61.48;100510.91;5087582;28;20387;-62
2022/08/26 11:15:09;;;;;;;23.33;7.57;;;;;;;28.43;61.55;100520.28;5097141;28;20052;-62
2022/08/26 11:18:06;;;;;;;23.98;8.15;;;;;;;28.40;61.19;100523.41;5095614;28;20417;-62
2022/08/26 11:20:40;;;;;;;22.35;7.40;;;;;;;28.34;61.36;100517.97;5076115;28;20059;-62
2022/08/26 11:23:10;;;;;;;20.65;6.30;;;;;;;28.26;61.37;100516.31;5094894;28;20058;-62
2022/08/26 11:26:08;;;;;;;17.48;7.07;;;;;;;28.24;62.10;100503.00;5090020;28;20097;-60
2022/08/26 11:28:46;;;;;;;24.85;7.43;;;;;;;28.25;62.06;100501.13;5092160;28;20437;-61
2022/08/26 11:31:25;;;;;;;21.80;7.00;;;;;;;28.17;61.22;100499.44;5093994;28;20124;-61
2022/08/26 11:33:58;;;;;;;17.67;6.35;;;;;;;28.11;61.80;100489.47;5094776;28;20052;-62
2022/08/26 11:36:44;;;;;;;18.83;7.03;;;;;;;28.14;61.85;100490.91;5073686;28;20055;-62
2022/08/26 11:39:29;;;;;;;18.52;6.38;;;;;;;28.16;62.06;100481.53;5096389;28;20070;-62
2022/08/26 11:42:15;;;;;;;23.67;6.78;;;;;;;28.17;61.83;100488.63;5093586;28;20055;-62
2022/08/26 11:44:46;;;;;;;23.30;8.00;;;;;;;28.19;61.87;100489.25;5091537;28;20047;-61
2022/08/26 11:47:16;;;;;;;22.73;7.20;;;;;;;28.22;61.97;100482.56;5075253;28;20055;-62